Bradshaw, West Virginia
Current Conditions -  °F | °C
As of 12:55 AM on Saturday 20 Dec 2014 (Local Time) from KJFZ Reporting Station
Clear Clear  
Wind Chill: 22°   Ceiling: Unl
Heat Index: 28°   Visibility: 10mi
Dew Point: 22°   Wind: 5mph
Humidity: 80%   Direction: 30°NNE
Pressure: 30.13"   Gusts: NA
Location:  37.35°N, 81.8°W
Report Text: KJFZ 200555Z AUTO 03004KT 10SM CLR M02/M05 A3013 RMK AO2 T10241054 10005 21028 400301028
Loading
Personal Weather Stations






























Interactive Weather Map New forecast layout! Learn more

10-Day Weather Forecast

Advertisements
Track Severe Weather on mobile